createdAt,value
2022-09-27T00:01:15.387Z,100.00
2022-09-27T00:03:42.616Z,100.00
2022-09-27T00:06:28.136Z,99.36
2022-09-27T00:08:55.542Z,100.00
2022-09-27T00:11:32.177Z,100.00
2022-09-27T00:13:59.724Z,100.00
2022-09-27T00:16:29.041Z,100.00
2022-09-27T00:19:07.822Z,100.00
2022-09-27T00:21:35.179Z,100.00
2022-09-27T00:24:02.281Z,100.00
2022-09-27T00:26:29.454Z,100.00
2022-09-27T00:28:56.381Z,100.00
2022-09-27T00:31:24.524Z,100.00
2022-09-27T00:33:53.287Z,100.00
2022-09-27T00:36:21.940Z,100.00
2022-09-27T00:38:48.880Z,100.00
2022-09-27T00:41:21.752Z,100.00
2022-09-27T00:43:48.346Z,100.00
2022-09-27T00:46:20.775Z,100.00
2022-09-27T00:48:49.412Z,100.00
2022-09-27T00:51:16.842Z,100.00
2022-09-27T00:53:51.644Z,100.00
2022-09-27T00:56:27.269Z,100.00
2022-09-27T00:59:01.939Z,100.00
2022-09-27T01:01:30.689Z,100.00
2022-09-27T01:04:04.932Z,100.00
2022-09-27T01:06:32.010Z,100.00
2022-09-27T01:08:58.835Z,100.00
2022-09-27T01:11:44.923Z,100.00
2022-09-27T01:14:30.362Z,100.00
2022-09-27T01:17:27.310Z,100.00
2022-09-27T01:20:12.858Z,100.00
2022-09-27T01:22:49.330Z,100.00
2022-09-27T01:25:22.008Z,100.00
2022-09-27T01:28:10.660Z,100.00
2022-09-27T01:30:43.372Z,100.00
2022-09-27T01:33:39.942Z,100.00
2022-09-27T01:36:07.068Z,100.00
2022-09-27T01:38:52.772Z,100.00
2022-09-27T01:42:13.108Z,100.00
2022-09-27T01:44:58.529Z,100.00
2022-09-27T01:47:39.561Z,100.00
2022-09-27T01:50:29.576Z,100.00
2022-09-27T01:53:08.652Z,100.00
2022-09-27T01:55:49.683Z,100.00
2022-09-27T01:58:59.333Z,100.00
2022-09-27T02:01:30.225Z,100.00
2022-09-27T02:04:00.514Z,100.00
2022-09-27T02:06:49.349Z,100.00
2022-09-27T02:09:26.653Z,100.00
2022-09-27T02:12:09.831Z,100.00
2022-09-27T02:14:49.856Z,100.00
2022-09-27T02:17:22.005Z,100.00
2022-09-27T02:20:11.857Z,100.00
2022-09-27T02:23:21.474Z,100.00
2022-09-27T02:26:02.851Z,100.00
2022-09-27T02:28:51.630Z,100.00
2022-09-27T02:31:25.610Z,100.00
2022-09-27T02:34:07.071Z,100.00
2022-09-27T02:36:33.935Z,100.00
2022-09-27T02:39:01.355Z,100.00
2022-09-27T02:41:30.523Z,100.00
2022-09-27T02:44:04.033Z,100.00
2022-09-27T02:46:52.282Z,100.00
2022-09-27T02:49:34.076Z,100.00
2022-09-27T02:52:28.159Z,100.00
2022-09-27T02:55:06.544Z,100.00
2022-09-27T02:58:22.329Z,100.00
2022-09-27T03:01:31.087Z,100.00
2022-09-27T03:04:09.935Z,100.00
2022-09-27T03:06:41.461Z,100.00
2022-09-27T03:09:25.494Z,100.00
2022-09-27T03:11:53.353Z,100.00
2022-09-27T03:14:20.213Z,100.00
2022-09-27T03:17:04.238Z,100.00
2022-09-27T03:19:51.376Z,100.00
2022-09-27T03:22:44.201Z,100.00
2022-09-27T03:25:11.825Z,100.00
2022-09-27T03:27:38.697Z,100.00
2022-09-27T03:30:06.540Z,100.00
2022-09-27T03:32:34.132Z,100.00
2022-09-27T03:35:19.661Z,100.00
2022-09-27T03:37:47.267Z,100.00
2022-09-27T03:40:14.103Z,100.00
2022-09-27T03:42:42.520Z,100.00
2022-09-27T03:45:12.083Z,100.00
2022-09-27T03:47:42.283Z,100.00
2022-09-27T03:50:10.680Z,99.84
2022-09-27T03:52:37.699Z,99.58
2022-09-27T03:55:05.407Z,99.33
2022-09-27T03:57:32.160Z,99.20
2022-09-27T04:00:02.284Z,98.83
2022-09-27T04:02:42.142Z,98.79
2022-09-27T04:05:30.539Z,98.72
2022-09-27T04:08:11.183Z,98.63
2022-09-27T04:10:38.475Z,98.46
2022-09-27T04:13:05.863Z,98.33
2022-09-27T04:15:39.501Z,98.11
2022-09-27T04:18:25.241Z,98.42
2022-09-27T04:21:10.824Z,98.18
2022-09-27T04:23:42.926Z,98.31
2022-09-27T04:26:13.969Z,97.93
2022-09-27T04:29:01.078Z,98.23
2022-09-27T04:31:28.242Z,98.15
2022-09-27T04:34:09.240Z,97.85
2022-09-27T04:36:36.934Z,97.88
2022-09-27T04:39:08.413Z,97.94
2022-09-27T04:41:37.984Z,98.05
2022-09-27T04:44:05.035Z,98.05
2022-09-27T04:46:32.030Z,97.78
2022-09-27T04:49:00.420Z,97.74
2022-09-27T04:51:29.122Z,97.54
2022-09-27T04:53:58.236Z,98.05
2022-09-27T04:56:34.433Z,98.46
2022-09-27T04:59:08.298Z,98.49
2022-09-27T05:01:38.675Z,98.39
2022-09-27T05:04:15.434Z,98.17
2022-09-27T05:06:47.479Z,97.81
2022-09-27T05:09:23.292Z,98.38
2022-09-27T05:11:52.691Z,98.68
2022-09-27T05:14:34.981Z,98.03
2022-09-27T05:17:23.517Z,97.99
2022-09-27T05:19:56.046Z,98.25
2022-09-27T05:22:40.290Z,98.53
2022-09-27T05:25:07.777Z,98.46
2022-09-27T05:27:34.863Z,98.43
2022-09-27T05:30:02.121Z,98.54
2022-09-27T05:32:43.840Z,99.16
2022-09-27T05:35:35.787Z,99.56
2022-09-27T05:38:03.621Z,99.58
2022-09-27T05:40:41.707Z,99.33
2022-09-27T05:43:10.257Z,98.92
2022-09-27T05:45:37.190Z,98.75
2022-09-27T05:48:05.532Z,98.58
2022-09-27T05:50:36.856Z,98.65
2022-09-27T05:53:03.800Z,98.69
2022-09-27T05:55:30.603Z,98.23
2022-09-27T05:58:05.527Z,98.45
2022-09-27T06:00:44.109Z,97.49
2022-09-27T06:03:30.800Z,96.98
2022-09-27T06:06:20.877Z,97.09
2022-09-27T06:08:53.661Z,96.92
2022-09-27T06:11:21.667Z,96.44
2022-09-27T06:13:50.029Z,95.89
2022-09-27T06:16:16.987Z,94.52
2022-09-27T06:18:45.279Z,94.43
2022-09-27T06:21:13.561Z,94.12
2022-09-27T06:23:44.715Z,91.19
2022-09-27T06:26:22.047Z,91.30
2022-09-27T06:28:59.231Z,91.63
2022-09-27T06:31:26.112Z,91.72
2022-09-27T06:34:02.331Z,90.79
2022-09-27T06:36:30.107Z,90.59
2022-09-27T06:38:57.989Z,90.81
2022-09-27T06:41:34.297Z,91.29
2022-09-27T06:44:15.762Z,90.74
2022-09-27T06:46:45.807Z,90.62
2022-09-27T06:49:31.774Z,90.25
2022-09-27T06:51:59.876Z,90.76
2022-09-27T06:54:26.610Z,90.66
2022-09-27T06:56:53.403Z,90.28
2022-09-27T06:59:39.082Z,89.23
2022-09-27T07:02:27.635Z,88.43
2022-09-27T07:05:13.176Z,86.28
2022-09-27T07:08:05.999Z,87.20
2022-09-27T07:10:36.242Z,87.19
2022-09-27T07:13:08.122Z,86.90
2022-09-27T07:15:37.199Z,84.43
2022-09-27T07:18:07.590Z,84.62
2022-09-27T07:20:37.329Z,83.81
2022-09-27T07:23:05.394Z,82.73
2022-09-27T07:25:34.533Z,82.01
2022-09-27T07:28:05.879Z,81.21
2022-09-27T07:30:33.753Z,80.65
2022-09-27T07:33:03.095Z,80.63
2022-09-27T07:35:30.314Z,80.12
2022-09-27T07:37:58.392Z,81.58
2022-09-27T07:40:26.749Z,82.92
2022-09-27T07:42:57.788Z,83.81
2022-09-27T07:45:25.915Z,84.83
2022-09-27T07:48:16.591Z,85.14
2022-09-27T07:51:11.022Z,85.69
2022-09-27T07:54:07.907Z,86.44
2022-09-27T07:57:03.780Z,86.77
2022-09-27T07:59:31.622Z,87.25
2022-09-27T08:01:58.779Z,87.15
2022-09-27T08:04:25.615Z,87.38
2022-09-27T08:06:52.466Z,87.83
2022-09-27T08:09:19.339Z,85.67
2022-09-27T08:11:46.246Z,85.79
2022-09-27T08:14:14.814Z,86.35
2022-09-27T08:16:44.721Z,86.25
2022-09-27T08:19:34.206Z,85.49
2022-09-27T08:22:27.130Z,85.12
2022-09-27T08:24:57.771Z,84.85
2022-09-27T08:27:58.236Z,84.54
2022-09-27T08:30:39.135Z,84.82
2022-09-27T08:33:07.218Z,84.36
2022-09-27T08:35:34.237Z,83.63
2022-09-27T08:38:03.268Z,82.94
2022-09-27T08:40:43.548Z,81.79
2022-09-27T08:43:21.258Z,81.03
2022-09-27T08:45:57.351Z,81.78
2022-09-27T08:48:27.650Z,81.71
2022-09-27T08:50:55.744Z,82.34
2022-09-27T08:53:37.234Z,82.04
2022-09-27T08:56:08.209Z,82.06
2022-09-27T08:59:12.614Z,82.46
2022-09-27T09:01:39.827Z,82.13
2022-09-27T09:04:11.897Z,81.53
2022-09-27T09:07:03.197Z,80.92
2022-09-27T09:10:14.122Z,80.43
2022-09-27T09:12:57.436Z,79.52
2022-09-27T09:15:56.470Z,79.08
2022-09-27T09:18:51.618Z,78.21
2022-09-27T09:21:51.229Z,77.24
2022-09-27T09:24:42.537Z,76.85
2022-09-27T09:27:29.581Z,76.00
2022-09-27T09:30:18.734Z,75.03
2022-09-27T09:33:09.773Z,73.69
2022-09-27T09:35:43.817Z,71.88
2022-09-27T09:38:19.423Z,71.37
2022-09-27T09:40:59.707Z,71.85
2022-09-27T09:43:39.536Z,71.83
2022-09-27T09:46:35.195Z,71.18
2022-09-27T09:49:19.472Z,71.27
2022-09-27T09:51:51.930Z,71.83
2022-09-27T09:54:24.412Z,72.19
2022-09-27T09:57:05.924Z,72.34
2022-09-27T10:00:09.763Z,72.75
2022-09-27T10:02:44.972Z,73.05
2022-09-27T10:05:21.903Z,72.92
2022-09-27T10:07:57.618Z,72.64
2022-09-27T10:10:24.971Z,71.84
2022-09-27T10:12:55.385Z,70.11
2022-09-27T10:15:30.729Z,69.42
2022-09-27T10:17:59.753Z,68.85
2022-09-27T10:20:33.403Z,68.95
2022-09-27T10:23:22.712Z,67.88
2022-09-27T10:26:10.413Z,67.35
2022-09-27T10:28:47.546Z,66.32
2022-09-27T10:31:20.699Z,65.95
2022-09-27T10:34:05.702Z,66.45
2022-09-27T10:36:42.284Z,65.94
2022-09-27T10:39:23.828Z,64.55
2022-09-27T10:41:51.513Z,64.06
2022-09-27T10:44:28.087Z,62.19
2022-09-27T10:47:10.311Z,60.35
2022-09-27T10:49:53.826Z,57.23
2022-09-27T10:52:43.686Z,57.32
2022-09-27T10:55:27.051Z,57.01
2022-09-27T10:57:56.285Z,56.47
2022-09-27T11:00:27.977Z,56.96
2022-09-27T11:02:58.091Z,56.26
2022-09-27T11:05:36.118Z,56.69
2022-09-27T11:08:23.229Z,56.20
2022-09-27T11:11:05.110Z,56.50
2022-09-27T11:13:34.517Z,56.79
2022-09-27T11:16:29.816Z,56.51
2022-09-27T11:19:18.740Z,56.64
2022-09-27T11:22:24.574Z,55.69
2022-09-27T11:27:46.341Z,56.33
2022-09-27T11:30:20.829Z,56.06
2022-09-27T11:33:28.160Z,55.19
2022-09-27T11:36:22.614Z,53.61
2022-09-27T11:39:08.070Z,52.90
2022-09-27T11:42:06.401Z,52.54
2022-09-27T11:44:47.058Z,52.59
2022-09-27T11:47:34.177Z,51.81
2022-09-27T11:50:16.001Z,52.30
2022-09-27T11:52:51.342Z,52.04
2022-09-27T11:55:30.583Z,52.05
2022-09-27T11:58:21.750Z,50.68
2022-09-27T12:00:55.703Z,49.95
2022-09-27T12:03:46.898Z,48.99
2022-09-27T12:06:19.481Z,48.26
2022-09-27T12:08:59.725Z,47.38
2022-09-27T12:11:31.390Z,47.58
2022-09-27T12:14:27.659Z,48.04
2022-09-27T12:16:57.814Z,48.85
2022-09-27T12:19:52.044Z,49.34
2022-09-27T12:22:57.727Z,49.35
2022-09-27T12:25:37.214Z,50.24
2022-09-27T12:28:34.900Z,49.92
2022-09-27T12:31:28.336Z,51.00
2022-09-27T12:34:28.158Z,51.48
2022-09-27T12:37:17.172Z,51.82
2022-09-27T12:39:54.306Z,52.29
2022-09-27T12:42:49.142Z,53.00
2022-09-27T12:46:05.279Z,53.51
2022-09-27T12:48:41.810Z,54.46
2022-09-27T12:51:17.357Z,55.33
2022-09-27T12:54:20.762Z,55.77
2022-09-27T12:57:09.336Z,57.11
2022-09-27T13:00:07.025Z,58.12
2022-09-27T13:03:16.274Z,60.09
2022-09-27T13:06:11.890Z,60.38
2022-09-27T13:08:58.040Z,60.91
2022-09-27T13:11:58.636Z,61.45
2022-09-27T13:14:29.323Z,61.79
2022-09-27T13:16:56.578Z,62.13
2022-09-27T13:19:35.498Z,62.50
2022-09-27T13:22:05.027Z,62.76
2022-09-27T13:24:57.965Z,62.74
2022-09-27T13:27:51.166Z,62.87
2022-09-27T13:30:23.501Z,64.16
2022-09-27T13:33:16.863Z,64.46
2022-09-27T13:36:17.626Z,66.10
2022-09-27T13:38:55.371Z,65.33
2022-09-27T13:41:23.246Z,65.29
2022-09-27T13:44:29.569Z,65.25
2022-09-27T13:47:06.718Z,65.09
2022-09-27T13:49:38.497Z,65.03
2022-09-27T13:52:37.732Z,65.09
2022-09-27T13:55:50.983Z,66.61
2022-09-27T13:58:47.461Z,66.68
2022-09-27T14:01:48.274Z,67.32
2022-09-27T14:04:27.055Z,67.88
2022-09-27T14:06:57.852Z,68.42
2022-09-27T14:09:29.463Z,69.48
2022-09-27T14:12:19.226Z,70.04
2022-09-27T14:14:49.607Z,70.89
2022-09-27T14:17:17.303Z,71.94
2022-09-27T14:19:46.018Z,72.00
2022-09-27T14:22:22.743Z,72.19
2022-09-27T14:24:58.017Z,72.47
2022-09-27T14:27:35.726Z,73.09
2022-09-27T14:30:30.523Z,73.33
2022-09-27T14:33:31.618Z,73.93
2022-09-27T14:36:25.645Z,75.25
2022-09-27T14:38:58.851Z,76.34
2022-09-27T14:41:38.236Z,76.01
2022-09-27T14:44:05.070Z,76.52
2022-09-27T14:46:32.509Z,77.14
2022-09-27T14:49:11.309Z,78.13
2022-09-27T14:51:38.775Z,78.22
2022-09-27T14:54:07.947Z,79.00
2022-09-27T14:56:37.807Z,79.47
2022-09-27T14:59:11.460Z,79.72
2022-09-27T15:01:40.084Z,80.05
2022-09-27T15:04:11.770Z,80.33
2022-09-27T15:06:39.325Z,80.91
2022-09-27T15:09:07.158Z,81.32
2022-09-27T15:11:34.896Z,81.90
2022-09-27T15:14:04.936Z,82.67
2022-09-27T15:16:32.101Z,82.86
2022-09-27T15:19:07.243Z,83.42
2022-09-27T15:21:36.475Z,83.63
2022-09-27T15:24:04.444Z,84.23
2022-09-27T15:26:46.431Z,84.44
2022-09-27T15:29:21.646Z,84.73
2022-09-27T15:32:00.840Z,85.30
2022-09-27T15:34:29.965Z,85.78
2022-09-27T15:37:03.602Z,85.75
2022-09-27T15:39:36.902Z,86.31
2022-09-27T15:42:13.493Z,86.40
2022-09-27T15:44:45.295Z,86.26
2022-09-27T15:47:38.772Z,86.74
2022-09-27T15:50:17.539Z,86.65
2022-09-27T15:52:57.234Z,86.84
2022-09-27T15:55:29.532Z,86.74
2022-09-27T15:58:05.315Z,87.23
2022-09-27T16:00:32.451Z,87.14
2022-09-27T16:02:59.461Z,87.67
2022-09-27T16:05:27.286Z,87.67
2022-09-27T16:07:54.383Z,88.10
2022-09-27T16:10:42.536Z,88.26
2022-09-27T16:13:09.371Z,88.70
2022-09-27T16:15:36.911Z,88.71
2022-09-27T16:18:04.286Z,88.80
2022-09-27T16:20:32.199Z,89.10
2022-09-27T16:22:59.271Z,89.17
2022-09-27T16:25:26.132Z,89.32
2022-09-27T16:27:52.878Z,89.33
2022-09-27T16:30:20.760Z,89.40
2022-09-27T16:32:48.823Z,89.53
2022-09-27T16:35:17.831Z,89.73
2022-09-27T16:37:44.806Z,90.06
2022-09-27T16:40:13.655Z,90.04
2022-09-27T16:42:41.292Z,90.15
2022-09-27T16:45:11.218Z,91.57
2022-09-27T16:47:40.506Z,92.28
2022-09-27T16:50:26.790Z,91.40
2022-09-27T16:52:55.453Z,91.01
2022-09-27T16:55:22.951Z,91.25
2022-09-27T16:57:51.163Z,91.32
2022-09-27T17:00:18.622Z,91.72
2022-09-27T17:02:48.562Z,92.44
2022-09-27T17:05:17.452Z,92.72
2022-09-27T17:07:44.231Z,92.76
2022-09-27T17:10:11.293Z,92.89
2022-09-27T17:12:38.262Z,92.93
2022-09-27T17:15:05.762Z,93.24
2022-09-27T17:17:32.660Z,93.51
2022-09-27T17:19:59.876Z,93.82
2022-09-27T17:22:26.892Z,93.79
2022-09-27T17:24:53.933Z,93.99
2022-09-27T17:27:25.158Z,94.03
2022-09-27T17:29:53.104Z,94.00
2022-09-27T17:32:22.663Z,93.97
2022-09-27T17:34:49.768Z,93.89
2022-09-27T17:37:17.055Z,94.15
2022-09-27T17:39:44.170Z,94.18
2022-09-27T17:42:11.801Z,94.27
2022-09-27T17:44:38.985Z,94.86
2022-09-27T17:47:24.415Z,94.70
2022-09-27T17:50:09.990Z,94.96
2022-09-27T17:52:36.983Z,94.77
2022-09-27T17:55:04.071Z,95.16
2022-09-27T17:57:31.917Z,95.29
2022-09-27T17:59:58.703Z,95.56
2022-09-27T18:02:28.267Z,95.62
2022-09-27T18:04:55.209Z,95.54
2022-09-27T18:07:23.089Z,95.74
2022-09-27T18:09:51.184Z,95.63
2022-09-27T18:12:18.032Z,95.46
2022-09-27T18:14:46.450Z,95.71
2022-09-27T18:17:15.341Z,95.83
2022-09-27T18:19:42.837Z,95.79
2022-09-27T18:22:11.138Z,95.83
2022-09-27T18:24:38.269Z,95.84
2022-09-27T18:27:06.556Z,95.58
2022-09-27T18:29:33.785Z,95.57
2022-09-27T18:32:03.060Z,95.80
2022-09-27T18:34:31.133Z,95.74
2022-09-27T18:36:59.461Z,95.67
2022-09-27T18:39:26.692Z,96.30
2022-09-27T18:41:56.320Z,97.37
2022-09-27T18:44:24.180Z,97.11
2022-09-27T18:46:51.403Z,96.76
2022-09-27T18:49:23.492Z,96.34
2022-09-27T18:51:54.315Z,96.49
2022-09-27T18:54:22.749Z,96.27
2022-09-27T18:56:52.337Z,96.10
2022-09-27T18:59:21.016Z,96.06
2022-09-27T19:01:49.534Z,96.91
2022-09-27T19:04:25.299Z,97.08
2022-09-27T19:06:53.901Z,97.90
2022-09-27T19:09:21.287Z,97.60
2022-09-27T19:11:48.538Z,98.58
2022-09-27T19:14:18.235Z,99.39
2022-09-27T19:16:47.578Z,99.18
2022-09-27T19:19:16.596Z,99.14
2022-09-27T19:21:43.952Z,99.93
2022-09-27T19:24:11.916Z,99.86
2022-09-27T19:26:39.607Z,99.71
2022-09-27T19:29:06.713Z,100.00
2022-09-27T19:31:35.928Z,99.55
2022-09-27T19:34:03.952Z,98.13
2022-09-27T19:36:31.372Z,97.91
2022-09-27T19:38:58.955Z,97.73
2022-09-27T19:41:27.046Z,98.25
2022-09-27T19:43:55.575Z,98.98
2022-09-27T19:46:24.450Z,99.30
2022-09-27T19:48:52.322Z,99.55
2022-09-27T19:51:22.059Z,99.68
2022-09-27T19:53:50.043Z,99.72
2022-09-27T19:56:17.775Z,99.70
2022-09-27T19:58:44.745Z,99.21
2022-09-27T20:01:11.610Z,98.99
2022-09-27T20:03:40.779Z,98.69
2022-09-27T20:06:19.099Z,98.91
2022-09-27T20:08:47.819Z,98.90
2022-09-27T20:11:16.896Z,98.77
2022-09-27T20:13:44.035Z,98.63
2022-09-27T20:16:15.082Z,98.13
2022-09-27T20:18:44.135Z,98.06
2022-09-27T20:21:11.593Z,97.79
2022-09-27T20:23:38.891Z,98.06
2022-09-27T20:26:08.220Z,97.80
2022-09-27T20:28:36.116Z,97.53
2022-09-27T20:31:04.997Z,98.11
2022-09-27T20:33:41.170Z,98.59
2022-09-27T20:36:15.221Z,98.75
2022-09-27T20:38:44.097Z,98.01
2022-09-27T20:41:12.711Z,99.16
2022-09-27T20:43:39.800Z,99.91
2022-09-27T20:46:08.655Z,99.85
2022-09-27T20:48:35.622Z,100.00
2022-09-27T20:51:04.781Z,100.00
2022-09-27T20:53:32.006Z,100.00
2022-09-27T20:56:02.582Z,100.00
2022-09-27T20:58:31.386Z,100.00
2022-09-27T21:01:05.635Z,100.00
2022-09-27T21:03:32.726Z,100.00
2022-09-27T21:05:59.438Z,100.00
2022-09-27T21:08:29.795Z,100.00
2022-09-27T21:11:04.568Z,100.00
2022-09-27T21:13:31.500Z,100.00
2022-09-27T21:16:07.022Z,100.00
2022-09-27T21:18:34.943Z,100.00
2022-09-27T21:21:04.535Z,100.00
2022-09-27T21:23:32.939Z,100.00
2022-09-27T21:26:05.739Z,100.00
2022-09-27T21:28:36.384Z,100.00
2022-09-27T21:31:08.614Z,100.00
2022-09-27T21:33:36.338Z,100.00
2022-09-27T21:36:04.576Z,100.00
2022-09-27T21:38:31.920Z,100.00
2022-09-27T21:41:04.686Z,99.38
2022-09-27T21:43:32.670Z,99.29
2022-09-27T21:46:12.618Z,98.93
2022-09-27T21:48:41.799Z,98.91
2022-09-27T21:51:45.568Z,98.71
2022-09-27T21:54:15.904Z,98.42
2022-09-27T21:56:43.750Z,98.58
2022-09-27T21:59:13.152Z,98.14
2022-09-27T22:01:42.116Z,98.17
2022-09-27T22:04:09.328Z,97.80
2022-09-27T22:06:37.903Z,97.85
2022-09-27T22:09:12.144Z,97.29
2022-09-27T22:11:44.372Z,97.06
2022-09-27T22:14:12.441Z,96.93
2022-09-27T22:16:39.353Z,96.45
2022-09-27T22:19:06.741Z,96.51
2022-09-27T22:21:39.790Z,96.26
2022-09-27T22:24:11.000Z,96.43
2022-09-27T22:26:40.270Z,96.35
2022-09-27T22:29:08.122Z,96.02
2022-09-27T22:31:35.507Z,95.89
2022-09-27T22:34:05.097Z,95.81
2022-09-27T22:36:32.359Z,96.16
2022-09-27T22:38:59.190Z,96.02
2022-09-27T22:41:26.178Z,96.01
2022-09-27T22:43:53.598Z,96.08
2022-09-27T22:46:21.323Z,95.98
2022-09-27T22:48:49.687Z,95.95
2022-09-27T22:51:17.373Z,96.05
2022-09-27T22:53:44.400Z,95.88
2022-09-27T22:56:16.557Z,95.78
2022-09-27T22:58:44.167Z,95.74
2022-09-27T23:01:17.257Z,95.85
2022-09-27T23:03:45.561Z,95.92
2022-09-27T23:06:12.844Z,95.69
2022-09-27T23:08:40.113Z,95.55
2022-09-27T23:11:11.108Z,95.41
2022-09-27T23:13:41.306Z,95.40
2022-09-27T23:16:16.270Z,95.70
2022-09-27T23:18:44.450Z,95.65
2022-09-27T23:21:12.945Z,95.89
2022-09-27T23:23:42.509Z,95.80
2022-09-27T23:26:11.654Z,95.68
2022-09-27T23:28:38.943Z,96.19
2022-09-27T23:31:08.245Z,96.58
2022-09-27T23:33:38.547Z,96.33
2022-09-27T23:36:08.805Z,97.68
2022-09-27T23:38:37.286Z,98.51
2022-09-27T23:41:04.530Z,99.56
2022-09-27T23:43:31.253Z,99.14
2022-09-27T23:45:58.115Z,98.50
2022-09-27T23:48:26.149Z,98.44
2022-09-27T23:50:52.957Z,97.96
2022-09-27T23:53:20.801Z,97.89
2022-09-27T23:55:48.645Z,97.85
2022-09-27T23:58:15.895Z,97.54
